createdAt,value
2024-04-14T00:02:16.981Z,78.17
2024-04-14T00:04:47.332Z,78.59
2024-04-14T00:07:15.027Z,78.77
2024-04-14T00:09:42.493Z,79.27
2024-04-14T00:12:10.154Z,79.31
2024-04-14T00:14:37.681Z,79.55
2024-04-14T00:17:05.237Z,79.93
2024-04-14T00:19:32.845Z,79.89
2024-04-14T00:22:01.037Z,80.19
2024-04-14T00:24:28.623Z,79.83
2024-04-14T00:26:56.267Z,80.21
2024-04-14T00:29:24.000Z,79.60
2024-04-14T00:31:51.598Z,79.30
2024-04-14T00:34:19.105Z,79.13
2024-04-14T00:36:46.708Z,79.51
2024-04-14T00:39:14.217Z,79.62
2024-04-14T00:41:41.720Z,79.71
2024-04-14T00:44:09.375Z,80.99
2024-04-14T00:46:37.430Z,80.90
2024-04-14T00:49:05.555Z,82.88
2024-04-14T00:51:34.045Z,80.36
2024-04-14T00:54:01.750Z,80.27
2024-04-14T00:56:29.675Z,80.48
2024-04-14T00:58:57.753Z,82.73
2024-04-14T01:01:25.373Z,81.12
2024-04-14T01:03:53.089Z,81.93
2024-04-14T01:06:20.634Z,81.31
2024-04-14T01:08:48.523Z,83.18
2024-04-14T01:11:16.147Z,82.52
2024-04-14T01:13:48.032Z,83.37
2024-04-14T01:16:15.592Z,83.78
2024-04-14T01:18:43.167Z,86.02
2024-04-14T01:21:11.034Z,84.68
2024-04-14T01:23:39.039Z,84.80
2024-04-14T01:26:06.595Z,85.06
2024-04-14T01:28:34.127Z,90.84
2024-04-14T01:31:01.974Z,84.82
2024-04-14T01:33:29.526Z,86.15
2024-04-14T01:35:57.083Z,85.38
2024-04-14T01:38:26.561Z,86.47
2024-04-14T01:40:54.468Z,85.42
2024-04-14T01:43:22.052Z,86.17
2024-04-14T01:45:49.736Z,86.59
2024-04-14T01:48:17.487Z,87.18
2024-04-14T01:50:44.980Z,87.45
2024-04-14T01:53:12.662Z,87.29
2024-04-14T01:55:44.212Z,87.12
2024-04-14T01:58:11.789Z,87.87
2024-04-14T02:00:39.353Z,88.53
2024-04-14T02:03:07.029Z,88.72
2024-04-14T02:05:34.567Z,88.85
2024-04-14T02:08:02.235Z,89.25
2024-04-14T02:10:29.751Z,88.61
2024-04-14T02:12:57.431Z,88.50
2024-04-14T02:15:25.192Z,89.31
2024-04-14T02:17:52.914Z,89.83
2024-04-14T02:20:20.569Z,90.78
2024-04-14T02:22:48.152Z,90.34
2024-04-14T02:25:15.736Z,89.82
2024-04-14T02:27:43.272Z,90.50
2024-04-14T02:30:11.093Z,91.05
2024-04-14T02:32:38.722Z,90.98
2024-04-14T02:35:06.472Z,90.89
2024-04-14T02:37:34.179Z,92.77
2024-04-14T02:40:01.874Z,92.83
2024-04-14T02:42:35.491Z,91.29
2024-04-14T02:45:03.327Z,91.67
2024-04-14T02:47:30.967Z,92.66
2024-04-14T02:49:58.509Z,92.78
2024-04-14T02:52:26.060Z,92.89
2024-04-14T02:54:53.521Z,92.34
2024-04-14T02:57:20.978Z,92.14
2024-04-14T02:59:48.538Z,92.84
2024-04-14T03:02:16.127Z,92.02
2024-04-14T03:04:43.666Z,92.12
2024-04-14T03:07:11.347Z,92.11
2024-04-14T03:09:38.922Z,92.92
2024-04-14T03:12:07.260Z,92.88
2024-04-14T03:14:34.782Z,93.40
2024-04-14T03:17:02.416Z,93.04
2024-04-14T03:19:29.871Z,94.84
2024-04-14T03:21:57.478Z,93.63
2024-04-14T03:24:25.082Z,95.09
2024-04-14T03:26:53.486Z,94.17
2024-04-14T03:29:21.993Z,94.13
2024-04-14T03:31:49.610Z,93.32
2024-04-14T03:34:17.087Z,93.56
2024-04-14T03:36:44.570Z,94.19
2024-04-14T03:39:12.050Z,94.75
2024-04-14T03:41:39.557Z,93.51
2024-04-14T03:44:07.076Z,94.43
2024-04-14T03:46:34.574Z,95.23
2024-04-14T03:49:02.191Z,97.47
2024-04-14T03:51:29.718Z,95.56
2024-04-14T03:53:57.268Z,95.88
2024-04-14T03:56:24.707Z,95.04
2024-04-14T03:58:52.246Z,87.63
2024-04-14T04:01:19.964Z,83.94
2024-04-14T04:03:47.955Z,81.94
2024-04-14T04:06:15.582Z,76.50
2024-04-14T04:08:43.114Z,78.76
2024-04-14T04:11:10.689Z,75.46
2024-04-14T04:13:38.101Z,83.09
2024-04-14T04:16:07.720Z,74.63
2024-04-14T04:18:36.471Z,73.14
2024-04-14T04:21:05.763Z,72.59
2024-04-14T04:23:33.434Z,74.12
2024-04-14T04:26:02.151Z,81.34
2024-04-14T04:28:29.874Z,89.73
2024-04-14T04:30:57.969Z,90.13
2024-04-14T04:33:25.829Z,80.29
2024-04-14T04:35:54.085Z,78.90
2024-04-14T04:38:25.795Z,75.10
2024-04-14T04:40:54.266Z,73.71
2024-04-14T04:43:24.271Z,75.09
2024-04-14T04:45:52.271Z,71.09
2024-04-14T04:48:19.976Z,71.00
2024-04-14T04:50:47.981Z,70.28
2024-04-14T04:53:15.675Z,68.88
2024-04-14T04:55:43.948Z,72.11
2024-04-14T04:58:12.285Z,72.30
2024-04-14T05:00:39.788Z,73.47
2024-04-14T05:03:07.479Z,76.29
2024-04-14T05:05:35.141Z,71.97
2024-04-14T05:08:03.198Z,72.70
2024-04-14T05:10:32.407Z,73.69
2024-04-14T05:13:00.508Z,73.89
2024-04-14T05:15:28.398Z,72.32
2024-04-14T05:17:56.387Z,71.83
2024-04-14T05:20:24.367Z,71.36
2024-04-14T05:22:51.827Z,78.16
2024-04-14T05:25:19.369Z,79.11
2024-04-14T05:27:47.005Z,77.95
2024-04-14T05:30:14.648Z,79.42
2024-04-14T05:32:42.140Z,80.91
2024-04-14T05:35:09.869Z,85.59
2024-04-14T05:37:37.400Z,84.24
2024-04-14T05:40:05.353Z,86.51
2024-04-14T05:42:33.046Z,80.36
2024-04-14T05:45:00.795Z,83.84
2024-04-14T05:47:28.344Z,86.44
2024-04-14T05:49:56.650Z,86.90
2024-04-14T05:52:26.134Z,85.76
2024-04-14T05:54:54.565Z,86.48
2024-04-14T05:57:22.094Z,84.96
2024-04-14T05:59:49.641Z,83.96
2024-04-14T06:02:17.133Z,83.59
2024-04-14T06:04:44.655Z,80.13
2024-04-14T06:07:12.197Z,80.71
2024-04-14T06:09:39.839Z,78.44
2024-04-14T06:12:07.755Z,74.77
2024-04-14T06:14:35.237Z,70.58
2024-04-14T06:17:02.863Z,73.09
2024-04-14T06:19:30.458Z,73.17
2024-04-14T06:21:58.083Z,72.64
2024-04-14T06:24:25.693Z,69.37
2024-04-14T06:26:53.290Z,69.80
2024-04-14T06:29:20.815Z,69.21
2024-04-14T06:31:48.379Z,67.79
2024-04-14T06:34:15.933Z,64.87
2024-04-14T06:36:43.430Z,63.35
2024-04-14T06:39:11.089Z,65.10
2024-04-14T06:41:38.545Z,65.13
2024-04-14T06:44:05.996Z,64.17
2024-04-14T06:46:33.572Z,61.88
2024-04-14T06:49:01.237Z,59.51
2024-04-14T06:51:28.872Z,62.31
2024-04-14T06:53:56.448Z,60.02
2024-04-14T06:56:24.440Z,60.67
2024-04-14T06:58:52.007Z,60.53
2024-04-14T07:01:19.618Z,62.74
2024-04-14T07:03:47.249Z,60.73
2024-04-14T07:06:14.847Z,61.85
2024-04-14T07:08:42.358Z,63.03
2024-04-14T07:11:10.012Z,60.28
2024-04-14T07:13:37.593Z,59.05
2024-04-14T07:16:05.453Z,57.66
2024-04-14T07:18:33.169Z,61.77
2024-04-14T07:21:04.462Z,100.00
2024-04-14T07:23:32.134Z,100.00
2024-04-14T07:25:59.436Z,79.52
2024-04-14T07:28:26.935Z,100.00
2024-04-14T07:30:54.336Z,85.22
2024-04-14T07:33:21.992Z,79.97
2024-04-14T07:35:49.715Z,65.49
2024-04-14T07:38:17.323Z,69.56
2024-04-14T07:40:44.911Z,69.28
2024-04-14T07:43:12.428Z,67.72
2024-04-14T07:45:40.002Z,69.90
2024-04-14T07:48:07.786Z,65.18
2024-04-14T07:50:37.230Z,65.00
2024-04-14T07:53:04.977Z,62.58
2024-04-14T07:55:32.547Z,61.97
2024-04-14T07:58:00.139Z,62.48
2024-04-14T08:00:27.815Z,66.41
2024-04-14T08:02:55.299Z,61.51
2024-04-14T08:05:22.989Z,58.88
2024-04-14T08:07:50.635Z,57.96
2024-04-14T08:10:18.372Z,55.96
2024-04-14T08:12:45.975Z,59.03
2024-04-14T08:15:13.600Z,55.89
2024-04-14T08:17:41.134Z,55.31
2024-04-14T08:20:09.145Z,56.31
2024-04-14T08:22:36.682Z,56.60
2024-04-14T08:25:04.546Z,54.57
2024-04-14T08:27:32.160Z,54.61
2024-04-14T08:29:59.800Z,55.72
2024-04-14T08:32:27.502Z,55.46
2024-04-14T08:34:55.251Z,59.54
2024-04-14T08:37:22.830Z,56.99
2024-04-14T08:39:50.288Z,51.63
2024-04-14T08:42:19.304Z,53.28
2024-04-14T08:44:47.846Z,52.40
2024-04-14T08:47:18.209Z,53.15
2024-04-14T08:49:47.315Z,51.61
2024-04-14T08:52:16.742Z,52.95
2024-04-14T08:54:44.655Z,53.94
2024-04-14T08:57:12.981Z,52.22
2024-04-14T08:59:42.219Z,52.23
2024-04-14T09:02:11.881Z,51.06
2024-04-14T09:04:40.623Z,49.76
2024-04-14T09:07:08.411Z,46.72
2024-04-14T09:09:36.732Z,43.50
2024-04-14T09:12:04.533Z,44.80
2024-04-14T09:14:32.121Z,45.48
2024-04-14T09:16:59.606Z,43.72
2024-04-14T09:19:27.199Z,44.14
2024-04-14T09:21:55.187Z,43.45
2024-04-14T09:24:22.731Z,43.90
2024-04-14T09:26:50.286Z,44.75
2024-04-14T09:29:17.720Z,42.10
2024-04-14T09:31:45.247Z,43.41
2024-04-14T09:34:13.225Z,43.22
2024-04-14T09:36:41.171Z,43.52
2024-04-14T09:39:10.301Z,40.13
2024-04-14T09:41:37.990Z,41.85
2024-04-14T09:44:06.878Z,42.64
2024-04-14T09:46:35.712Z,41.13
2024-04-14T09:49:05.078Z,41.17
2024-04-14T09:51:33.010Z,40.91
2024-04-14T09:54:02.831Z,41.61
2024-04-14T09:56:30.565Z,41.74
2024-04-14T09:58:58.091Z,42.93
2024-04-14T10:01:32.135Z,40.77
2024-04-14T10:04:01.553Z,40.22
2024-04-14T10:06:31.454Z,39.48
2024-04-14T10:08:59.309Z,41.37
2024-04-14T10:11:27.771Z,43.44
2024-04-14T10:13:56.874Z,42.28
2024-04-14T10:16:26.377Z,39.92
2024-04-14T10:18:54.010Z,40.99
2024-04-14T10:21:22.637Z,38.92
2024-04-14T10:23:52.635Z,39.92
2024-04-14T10:26:20.874Z,40.68
2024-04-14T10:28:56.544Z,39.65
2024-04-14T10:31:28.221Z,38.86
2024-04-14T10:34:06.770Z,40.61
2024-04-14T10:36:39.983Z,40.23
2024-04-14T10:39:07.960Z,40.41
2024-04-14T10:41:36.273Z,39.82
2024-04-14T10:44:03.788Z,38.45
2024-04-14T10:46:32.403Z,38.25
2024-04-14T10:49:00.126Z,39.63
2024-04-14T10:51:27.781Z,39.42
2024-04-14T10:53:55.225Z,40.45
2024-04-14T10:56:22.789Z,40.77
2024-04-14T10:58:50.222Z,41.43
2024-04-14T11:01:18.172Z,40.93
2024-04-14T11:03:47.565Z,41.41
2024-04-14T11:06:15.843Z,40.60
2024-04-14T11:08:44.094Z,39.81
2024-04-14T11:11:12.328Z,39.33
2024-04-14T11:13:40.319Z,39.80
2024-04-14T11:16:08.462Z,39.50
2024-04-14T11:18:36.522Z,39.48
2024-04-14T11:21:04.232Z,37.19
2024-04-14T11:23:32.146Z,38.28
2024-04-14T11:25:59.614Z,39.00
2024-04-14T11:28:27.335Z,39.14
2024-04-14T11:30:55.319Z,39.67
2024-04-14T11:33:23.404Z,39.93
2024-04-14T11:36:00.832Z,39.38
2024-04-14T11:38:29.440Z,37.23
2024-04-14T11:40:57.410Z,37.60
2024-04-14T11:43:24.927Z,37.79
2024-04-14T11:45:52.673Z,36.56
2024-04-14T11:48:20.389Z,36.91
2024-04-14T11:50:48.025Z,37.39
2024-04-14T11:53:15.496Z,36.66
2024-04-14T11:55:42.972Z,37.17
2024-04-14T11:58:10.601Z,36.41
2024-04-14T12:00:38.272Z,36.30
2024-04-14T12:03:06.125Z,37.15
2024-04-14T12:05:33.663Z,37.04
2024-04-14T12:08:01.223Z,37.33
2024-04-14T12:10:28.687Z,35.73
2024-04-14T12:12:56.205Z,36.28
2024-04-14T12:15:23.800Z,37.39
2024-04-14T12:17:51.417Z,37.31
2024-04-14T12:20:18.940Z,38.97
2024-04-14T12:22:46.512Z,37.29
2024-04-14T12:25:14.046Z,36.97
2024-04-14T12:27:41.557Z,36.61
2024-04-14T12:30:09.321Z,36.16
2024-04-14T12:32:36.866Z,36.91
2024-04-14T12:35:05.231Z,36.65
2024-04-14T12:37:33.285Z,36.91
2024-04-14T12:40:01.095Z,36.69
2024-04-14T12:42:28.994Z,36.92
2024-04-14T12:44:56.541Z,37.37
2024-04-14T12:47:24.091Z,36.87
2024-04-14T12:49:51.614Z,37.64
2024-04-14T12:52:19.187Z,36.77
2024-04-14T12:54:46.705Z,36.53
2024-04-14T12:57:14.210Z,34.27
2024-04-14T12:59:41.792Z,34.36
2024-04-14T13:02:09.255Z,35.17
2024-04-14T13:04:37.004Z,36.23
2024-04-14T13:07:04.762Z,36.42
2024-04-14T13:09:32.257Z,36.70
2024-04-14T13:11:59.938Z,36.37
2024-04-14T13:14:27.408Z,35.50
2024-04-14T13:16:54.988Z,36.24
2024-04-14T13:19:23.574Z,35.84
2024-04-14T13:21:51.151Z,35.50
2024-04-14T13:24:19.564Z,35.14
2024-04-14T13:26:47.101Z,34.93
2024-04-14T13:29:14.729Z,34.87
2024-04-14T13:31:42.201Z,34.57
2024-04-14T13:34:09.743Z,34.88
2024-04-14T13:36:37.385Z,36.02
2024-04-14T13:39:04.860Z,35.57
2024-04-14T13:41:32.378Z,34.73
2024-04-14T13:43:59.903Z,34.75
2024-04-14T13:46:27.490Z,34.66
2024-04-14T13:48:55.125Z,35.61
2024-04-14T13:51:22.637Z,35.40
2024-04-14T13:53:50.203Z,35.83
2024-04-14T13:56:17.589Z,35.18
2024-04-14T13:58:45.152Z,35.63
2024-04-14T14:01:12.801Z,35.16
2024-04-14T14:03:40.470Z,35.25
2024-04-14T14:06:07.987Z,37.49
2024-04-14T14:08:35.511Z,35.39
2024-04-14T14:11:03.078Z,34.50
2024-04-14T14:13:30.718Z,34.98
2024-04-14T14:15:58.482Z,36.03
2024-04-14T14:18:26.172Z,35.27
2024-04-14T14:20:53.839Z,36.02
2024-04-14T14:23:21.425Z,35.93
2024-04-14T14:25:49.143Z,35.29
2024-04-14T14:28:16.840Z,36.04
2024-04-14T14:30:44.551Z,35.78
2024-04-14T14:33:12.309Z,35.30
2024-04-14T14:35:39.894Z,35.59
2024-04-14T14:38:07.498Z,36.63
2024-04-14T14:40:35.282Z,36.20
2024-04-14T14:43:03.010Z,37.44
2024-04-14T14:45:33.461Z,35.32
2024-04-14T14:48:01.046Z,35.17
2024-04-14T14:50:30.866Z,35.36
2024-04-14T14:52:58.604Z,35.15
2024-04-14T14:55:26.173Z,35.55
2024-04-14T14:57:53.667Z,36.02
2024-04-14T15:00:21.271Z,36.17
2024-04-14T15:02:48.780Z,36.24
2024-04-14T15:05:16.363Z,36.61
2024-04-14T15:07:49.355Z,37.72
2024-04-14T15:10:17.138Z,37.53
2024-04-14T15:12:44.759Z,37.66
2024-04-14T15:15:12.461Z,38.62
2024-04-14T15:17:40.056Z,38.86
2024-04-14T15:20:08.550Z,38.86
2024-04-14T15:22:36.402Z,39.28
2024-04-14T15:25:04.462Z,39.10
2024-04-14T15:27:32.258Z,38.95
2024-04-14T15:29:59.704Z,40.31
2024-04-14T15:32:27.231Z,39.11
2024-04-14T15:34:54.745Z,40.00
2024-04-14T15:37:22.265Z,39.39
2024-04-14T15:39:50.322Z,40.17
2024-04-14T15:42:17.930Z,39.88
2024-04-14T15:44:45.622Z,40.06
2024-04-14T15:47:13.221Z,40.21
2024-04-14T15:49:40.774Z,40.46
2024-04-14T15:52:09.185Z,40.74
2024-04-14T15:54:36.999Z,39.79
2024-04-14T15:57:04.822Z,40.10
2024-04-14T15:59:32.529Z,40.26
2024-04-14T16:01:59.934Z,41.30
2024-04-14T16:04:27.511Z,40.88
2024-04-14T16:06:55.206Z,41.94
2024-04-14T16:09:25.140Z,42.84
2024-04-14T16:11:54.241Z,45.13
2024-04-14T16:14:21.758Z,45.80
2024-04-14T16:16:49.252Z,48.34
2024-04-14T16:19:17.002Z,47.33
2024-04-14T16:21:45.896Z,46.97
2024-04-14T16:24:13.592Z,45.65
2024-04-14T16:26:41.056Z,44.92
2024-04-14T16:29:08.645Z,48.51
2024-04-14T16:31:39.351Z,44.17
2024-04-14T16:34:07.303Z,50.33
2024-04-14T16:36:38.526Z,49.78
2024-04-14T16:39:07.852Z,47.44
2024-04-14T16:41:35.409Z,49.06
2024-04-14T16:44:02.863Z,45.38
2024-04-14T16:46:30.408Z,45.80
2024-04-14T16:48:58.179Z,44.90
2024-04-14T16:51:25.958Z,45.98
2024-04-14T16:53:53.691Z,48.99
2024-04-14T16:56:21.138Z,46.58
2024-04-14T16:58:48.768Z,47.38
2024-04-14T17:01:16.421Z,47.07
2024-04-14T17:03:44.204Z,46.53
2024-04-14T17:06:11.777Z,44.90
2024-04-14T17:08:39.456Z,46.78
2024-04-14T17:11:07.130Z,46.99
2024-04-14T17:13:34.637Z,45.87
2024-04-14T17:16:02.219Z,44.89
2024-04-14T17:18:29.697Z,45.40
2024-04-14T17:20:57.307Z,47.23
2024-04-14T17:23:24.991Z,46.43
2024-04-14T17:25:52.710Z,46.39
2024-04-14T17:28:20.360Z,46.89
2024-04-14T17:30:47.994Z,45.75
2024-04-14T17:33:15.641Z,47.33
2024-04-14T17:35:44.588Z,47.55
2024-04-14T17:38:12.177Z,45.21
2024-04-14T17:40:39.672Z,48.07
2024-04-14T17:43:07.331Z,47.72
2024-04-14T17:45:34.967Z,48.77
2024-04-14T17:48:02.537Z,47.85
2024-04-14T17:50:30.147Z,47.87
2024-04-14T17:52:57.608Z,48.77
2024-04-14T17:55:25.199Z,49.24
2024-04-14T17:57:52.731Z,47.74
2024-04-14T18:00:20.244Z,47.47
2024-04-14T18:02:47.846Z,50.80
2024-04-14T18:05:15.572Z,49.01
2024-04-14T18:07:43.107Z,49.30
2024-04-14T18:10:10.869Z,49.13
2024-04-14T18:12:38.457Z,48.36
2024-04-14T18:15:06.587Z,49.57
2024-04-14T18:17:34.186Z,50.14
2024-04-14T18:20:01.772Z,50.79
2024-04-14T18:22:29.328Z,50.74
2024-04-14T18:24:56.968Z,50.68
2024-04-14T18:27:24.560Z,50.94
2024-04-14T18:29:52.300Z,50.94
2024-04-14T18:32:19.858Z,50.44
2024-04-14T18:34:50.496Z,51.11
2024-04-14T18:37:17.992Z,51.08
2024-04-14T18:39:45.546Z,52.03
2024-04-14T18:42:13.101Z,51.81
2024-04-14T18:44:40.648Z,52.94
2024-04-14T18:47:08.205Z,53.10
2024-04-14T18:49:35.779Z,52.43
2024-04-14T18:52:03.474Z,52.39
2024-04-14T18:54:30.937Z,52.24
2024-04-14T18:56:59.405Z,52.89
2024-04-14T18:59:27.032Z,52.71
2024-04-14T19:01:54.679Z,52.88
2024-04-14T19:04:23.340Z,53.39
2024-04-14T19:06:51.915Z,53.52
2024-04-14T19:09:19.508Z,52.93
2024-04-14T19:11:47.003Z,53.63
2024-04-14T19:14:19.068Z,53.60
2024-04-14T19:16:46.547Z,53.90
2024-04-14T19:19:14.060Z,54.02
2024-04-14T19:21:41.620Z,53.96
2024-04-14T19:24:09.135Z,52.89
2024-04-14T19:26:36.611Z,54.35
2024-04-14T19:29:05.048Z,54.83
2024-04-14T19:31:32.701Z,55.82
2024-04-14T19:34:00.433Z,55.02
2024-04-14T19:36:27.899Z,56.61
2024-04-14T19:38:55.457Z,57.37
2024-04-14T19:41:22.966Z,56.55
2024-04-14T19:43:50.437Z,57.22
2024-04-14T19:46:17.934Z,58.21
2024-04-14T19:48:45.527Z,59.05
2024-04-14T19:51:13.041Z,58.08
2024-04-14T19:53:40.503Z,58.98
2024-04-14T19:56:07.965Z,58.36
2024-04-14T19:58:35.448Z,59.91
2024-04-14T20:01:05.426Z,59.62
2024-04-14T20:03:34.955Z,58.51
2024-04-14T20:06:02.497Z,58.91
2024-04-14T20:08:29.966Z,59.32
2024-04-14T20:10:57.588Z,60.39
2024-04-14T20:13:25.087Z,59.69
2024-04-14T20:15:52.577Z,59.71
2024-04-14T20:18:20.274Z,59.83
2024-04-14T20:20:48.374Z,60.63
2024-04-14T20:23:16.280Z,60.84
2024-04-14T20:25:43.810Z,61.81
2024-04-14T20:28:11.324Z,62.43
2024-04-14T20:30:39.121Z,61.66
2024-04-14T20:33:06.693Z,63.22
2024-04-14T20:35:34.141Z,63.30
2024-04-14T20:38:01.653Z,63.53
2024-04-14T20:40:31.701Z,64.98
2024-04-14T20:43:00.737Z,65.04
2024-04-14T20:45:28.323Z,65.45
2024-04-14T20:47:56.005Z,65.63
2024-04-14T20:50:23.611Z,65.54
2024-04-14T20:52:51.110Z,67.10
2024-04-14T20:55:18.727Z,65.91
2024-04-14T20:57:46.201Z,67.25
2024-04-14T21:00:14.034Z,68.00
2024-04-14T21:02:41.619Z,65.98
2024-04-14T21:05:09.291Z,64.86
2024-04-14T21:07:36.827Z,63.53
2024-04-14T21:10:04.658Z,64.25
2024-04-14T21:12:35.363Z,63.44
2024-04-14T21:15:02.999Z,63.31
2024-04-14T21:17:30.492Z,62.92
2024-04-14T21:19:58.615Z,62.31
2024-04-14T21:22:26.185Z,62.92
2024-04-14T21:24:54.039Z,62.37
2024-04-14T21:27:21.587Z,63.97
2024-04-14T21:29:49.134Z,63.07
2024-04-14T21:32:16.811Z,65.07
2024-04-14T21:34:44.653Z,65.50
2024-04-14T21:37:12.299Z,66.58
2024-04-14T21:39:39.909Z,66.55
2024-04-14T21:42:08.846Z,65.90
2024-04-14T21:44:36.778Z,67.22
2024-04-14T21:47:04.356Z,67.36
2024-04-14T21:49:31.832Z,67.93
2024-04-14T21:51:59.436Z,67.87
2024-04-14T21:54:26.972Z,68.03
2024-04-14T21:56:54.494Z,69.37
2024-04-14T21:59:21.994Z,69.62
2024-04-14T22:01:49.681Z,70.91
2024-04-14T22:04:21.524Z,70.28
2024-04-14T22:06:50.126Z,70.90
2024-04-14T22:09:17.789Z,71.67
2024-04-14T22:11:45.363Z,73.71
2024-04-14T22:14:12.884Z,73.74
2024-04-14T22:16:40.420Z,74.11
2024-04-14T22:19:08.016Z,73.84
2024-04-14T22:21:35.638Z,74.63
2024-04-14T22:24:03.200Z,75.00
2024-04-14T22:26:30.683Z,74.92
2024-04-14T22:28:58.403Z,74.94
2024-04-14T22:31:26.141Z,75.80
2024-04-14T22:33:53.822Z,76.46
2024-04-14T22:36:21.327Z,76.76
2024-04-14T22:38:48.931Z,76.98
2024-04-14T22:41:16.451Z,77.40
2024-04-14T22:43:44.099Z,78.24
2024-04-14T22:46:13.195Z,78.02
2024-04-14T22:48:40.785Z,77.82
2024-04-14T22:51:08.511Z,77.29
2024-04-14T22:53:36.035Z,77.50
2024-04-14T22:56:03.702Z,77.67
2024-04-14T22:58:31.224Z,77.81
2024-04-14T23:00:58.819Z,78.12
2024-04-14T23:03:26.467Z,78.09
2024-04-14T23:05:53.991Z,78.96
2024-04-14T23:08:21.460Z,78.64
2024-04-14T23:10:48.992Z,79.79
2024-04-14T23:13:16.511Z,80.09
2024-04-14T23:15:44.135Z,80.36
2024-04-14T23:18:11.842Z,80.32
2024-04-14T23:20:39.415Z,80.08
2024-04-14T23:23:06.868Z,79.77
2024-04-14T23:25:34.388Z,80.66
2024-04-14T23:28:01.849Z,79.46
2024-04-14T23:30:29.302Z,79.72
2024-04-14T23:32:56.808Z,80.69
2024-04-14T23:35:24.399Z,81.08
2024-04-14T23:37:51.850Z,81.12
2024-04-14T23:40:19.425Z,81.28
2024-04-14T23:42:46.978Z,81.65
2024-04-14T23:45:14.568Z,81.59
2024-04-14T23:47:42.133Z,81.78
2024-04-14T23:50:09.662Z,81.30
2024-04-14T23:52:37.244Z,82.20
2024-04-14T23:55:05.070Z,82.00
2024-04-14T23:57:34.164Z,82.45
